Time;durP1;ratioP1;P1;durP2;ratioP2;P2;SDS_P1;SDS_P2;PMS_P1;PMS_P2;Temp;Humidity;BMP_temperature;BMP_pressure;BME280_temperature;BME280_humidity;BME280_pressure;Samples;Min_cycle;Max_cycle;Signal;HPM_P1;HPM_P2
2023/01/29 00:02:10;;;;;;;39.80;19.08;;;;;;;;;;6127278;28;20056;-76
2023/01/29 00:05:11;;;;;;;32.40;18.50;;;;;;;;;;6125532;28;20107;-76
2023/01/29 00:08:13;;;;;;;35.53;19.00;;;;;;;;;;6126524;28;20055;-75
2023/01/29 00:11:16;;;;;;;35.53;19.92;;;;;;;;;;6124742;29;20056;-76
2023/01/29 00:14:18;;;;;;;36.67;19.40;;;;;;;;;;6126547;28;20055;-73
2023/01/29 00:17:20;;;;;;;33.65;18.50;;;;;;;;;;6122922;28;20106;-76
2023/01/29 00:20:21;;;;;;;36.15;19.23;;;;;;;;;;6128769;29;20420;-75
2023/01/29 00:23:23;;;;;;;35.70;19.17;;;;;;;;;;6126159;28;20055;-75
2023/01/29 00:26:27;;;;;;;37.20;19.77;;;;;;;;;;6118914;29;20066;-76
2023/01/29 00:29:29;;;;;;;36.63;20.23;;;;;;;;;;6122209;28;20063;-72
2023/01/29 00:32:30;;;;;;;33.60;18.67;;;;;;;;;;6125626;28;20143;-75
2023/01/29 00:35:32;;;;;;;35.67;18.50;;;;;;;;;;6124224;28;20276;-74
2023/01/29 00:38:34;;;;;;;36.33;19.45;;;;;;;;;;6126729;28;20344;-76
2023/01/29 00:44:57;;;;;;;40.97;20.05;;;;;;;;;;6124788;28;20040;-76
2023/01/29 00:47:59;;;;;;;43.17;19.38;;;;;;;;;;6123322;28;20109;-75
2023/01/29 00:51:01;;;;;;;38.42;19.98;;;;;;;;;;6124767;28;20040;-75
2023/01/29 00:54:05;;;;;;;37.85;19.15;;;;;;;;;;6124501;28;20059;-69
2023/01/29 00:57:11;;;;;;;;;;;;;;;;;;6125317;28;20056;-76
2023/01/29 01:00:15;;;;;;;36.45;19.42;;;;;;;;;;6125203;28;19927;-77
2023/01/29 01:03:16;;;;;;;34.53;19.00;;;;;;;;;;6124198;28;20063;-71
2023/01/29 01:06:18;;;;;;;39.10;19.88;;;;;;;;;;6124513;28;20043;-75
2023/01/29 01:12:40;;;;;;;38.25;20.20;;;;;;;;;;6129713;28;20542;-74
2023/01/29 01:15:41;;;;;;;36.78;18.85;;;;;;;;;;6129900;28;20055;-76
2023/01/29 01:18:43;;;;;;;35.60;18.88;;;;;;;;;;6128807;28;20331;-75
2023/01/29 01:21:47;;;;;;;36.53;17.77;;;;;;;;;;6131727;28;20078;-75
2023/01/29 01:24:49;;;;;;;38.83;19.37;;;;;;;;;;6126818;28;20320;-76
2023/01/29 01:27:54;;;;;;;39.78;18.73;;;;;;;;;;6125055;28;20051;-77
2023/01/29 01:30:58;;;;;;;34.58;18.08;;;;;;;;;;6130157;28;20063;-76
2023/01/29 01:34:00;;;;;;;37.80;18.70;;;;;;;;;;6127901;28;20054;-76
2023/01/29 01:37:02;;;;;;;33.47;17.73;;;;;;;;;;6127860;28;20103;-77
2023/01/29 01:40:04;;;;;;;35.92;18.98;;;;;;;;;;6128277;28;20383;-70
2023/01/29 01:43:09;;;;;;;33.17;17.25;;;;;;;;;;6128197;28;20051;-75
2023/01/29 01:46:11;;;;;;;37.53;17.13;;;;;;;;;;6128877;28;20070;-74
2023/01/29 01:49:15;;;;;;;32.63;17.10;;;;;;;;;;6125371;28;20063;-77
2023/01/29 01:52:17;;;;;;;33.53;17.05;;;;;;;;;;6128833;28;20048;-77
2023/01/29 01:55:23;;;;;;;36.22;17.98;;;;;;;;;;6124396;28;20060;-69
2023/01/29 01:58:28;;;;;;;34.70;18.75;;;;;;;;;;6127659;28;20056;-76
2023/01/29 02:01:30;;;;;;;33.80;17.45;;;;;;;;;;6125398;29;20040;-75
2023/01/29 02:11:10;;;;;;;33.08;18.02;;;;;;;;;;6129198;28;20060;-77
2023/01/29 02:14:13;;;;;;;32.15;17.50;;;;;;;;;;6128833;28;20063;-76
2023/01/29 02:17:17;;;;;;;35.38;17.55;;;;;;;;;;6128196;28;20055;-69
2023/01/29 02:20:24;;;;;;;33.80;17.58;;;;;;;;;;6131061;28;20059;-75
2023/01/29 02:23:53;;;;;;;37.40;17.73;;;;;;;;;;6129809;28;20118;-77
2023/01/29 02:27:00;;;;;;;32.75;16.90;;;;;;;;;;6129571;28;20078;-77
2023/01/29 02:30:07;;;;;;;35.65;17.42;;;;;;;;;;6129384;29;20063;-74
2023/01/29 02:33:17;;;;;;;34.92;17.75;;;;;;;;;;6129162;28;20275;-74
2023/01/29 02:36:26;;;;;;;32.20;17.70;;;;;;;;;;6129984;28;20391;-75
2023/01/29 02:39:34;;;;;;;36.05;17.63;;;;;;;;;;6126877;28;20052;-76
2023/01/29 02:42:40;;;;;;;33.80;17.20;;;;;;;;;;6127960;28;20071;-74
2023/01/29 02:45:46;;;;;;;37.63;17.92;;;;;;;;;;6126509;28;20060;-75
2023/01/29 02:48:52;;;;;;;32.00;17.50;;;;;;;;;;6128774;28;20056;-76
2023/01/29 02:51:59;;;;;;;35.33;16.67;;;;;;;;;;6129226;28;20054;-74
2023/01/29 02:55:06;;;;;;;31.73;16.90;;;;;;;;;;6129185;28;20070;-75
2023/01/29 02:58:12;;;;;;;32.25;16.58;;;;;;;;;;6130019;28;20059;-75
2023/01/29 03:01:18;;;;;;;32.95;16.30;;;;;;;;;;6127031;28;20048;-77
2023/01/29 03:04:23;;;;;;;29.20;16.08;;;;;;;;;;6127253;28;20055;-76
2023/01/29 03:07:41;;;;;;;31.63;17.52;;;;;;;;;;6128706;28;20107;-76
2023/01/29 03:10:47;;;;;;;30.27;16.83;;;;;;;;;;6122365;28;20060;-76
2023/01/29 03:13:52;;;;;;;31.65;15.70;;;;;;;;;;6125634;29;20047;-76
2023/01/29 03:16:55;;;;;;;37.55;16.30;;;;;;;;;;6127980;28;20063;-76
2023/01/29 03:19:58;;;;;;;32.05;16.48;;;;;;;;;;6124990;28;20118;-76
2023/01/29 03:23:03;;;;;;;29.95;16.35;;;;;;;;;;6126894;28;20067;-76
2023/01/29 03:32:46;;;;;;;33.00;16.73;;;;;;;;;;6127229;28;22726;-73
2023/01/29 03:35:51;;;;;;;32.78;17.15;;;;;;;;;;6127347;29;20350;-77
2023/01/29 03:38:53;;;;;;;28.42;16.13;;;;;;;;;;6127974;28;20327;-75
2023/01/29 03:42:05;;;;;;;30.95;16.55;;;;;;;;;;6128010;28;20297;-76
2023/01/29 03:45:14;;;;;;;30.92;16.42;;;;;;;;;;6120867;28;20100;-75
2023/01/29 03:48:24;;;;;;;33.35;17.55;;;;;;;;;;6127087;28;20063;-76
2023/01/29 03:51:30;;;;;;;28.92;16.48;;;;;;;;;;6124609;28;20052;-75
2023/01/29 03:54:39;;;;;;;35.22;17.48;;;;;;;;;;6124001;29;20111;-74
2023/01/29 03:57:44;;;;;;;34.17;16.65;;;;;;;;;;6125521;28;20079;-75
2023/01/29 04:00:52;;;;;;;34.25;18.13;;;;;;;;;;6123683;28;20055;-76
2023/01/29 04:03:58;;;;;;;31.50;18.10;;;;;;;;;;6122125;28;20051;-73
2023/01/29 04:07:04;;;;;;;33.78;18.45;;;;;;;;;;6126448;28;20055;-75
2023/01/29 04:10:09;;;;;;;31.13;17.20;;;;;;;;;;6123917;28;20064;-76
2023/01/29 04:13:13;;;;;;;32.30;17.77;;;;;;;;;;6125302;28;20550;-75
2023/01/29 04:16:18;;;;;;;27.40;16.63;;;;;;;;;;6125757;28;20622;-74
2023/01/29 04:19:21;;;;;;;35.70;17.85;;;;;;;;;;6127347;28;20059;-74
2023/01/29 04:22:24;;;;;;;34.65;18.75;;;;;;;;;;6124531;29;20347;-75
2023/01/29 04:25:28;;;;;;;35.50;17.90;;;;;;;;;;6127784;29;20063;-73
2023/01/29 04:28:33;;;;;;;;;;;;;;;;;;6124679;28;20056;-75
2023/01/29 04:31:42;;;;;;;37.58;17.13;;;;;;;;;;6126869;28;19919;-76
2023/01/29 04:34:53;;;;;;;33.35;17.80;;;;;;;;;;6125193;28;20119;-75
2023/01/29 04:38:03;;;;;;;36.42;18.48;;;;;;;;;;6126703;28;20396;-70
2023/01/29 04:41:08;;;;;;;34.67;16.85;;;;;;;;;;6128011;28;20059;-77
2023/01/29 04:44:17;;;;;;;33.47;17.40;;;;;;;;;;6123865;28;20051;-76
2023/01/29 04:47:24;;;;;;;34.03;17.38;;;;;;;;;;6125557;28;20130;-75
2023/01/29 04:50:29;;;;;;;35.72;17.25;;;;;;;;;;6122778;28;20252;-74
2023/01/29 04:53:37;;;;;;;37.28;18.10;;;;;;;;;;6125649;28;20126;-75
2023/01/29 04:56:42;;;;;;;33.42;17.83;;;;;;;;;;6126189;28;20062;-75
2023/01/29 04:59:47;;;;;;;31.63;16.45;;;;;;;;;;6128093;28;20059;-76
2023/01/29 05:02:49;;;;;;;32.00;17.52;;;;;;;;;;6123417;28;20086;-76
2023/01/29 05:05:52;;;;;;;32.97;17.55;;;;;;;;;;6125755;28;20055;-75
2023/01/29 05:08:55;;;;;;;33.75;17.20;;;;;;;;;;6127359;28;20058;-75
2023/01/29 05:11:57;;;;;;;29.85;17.08;;;;;;;;;;6125306;28;20063;-76
2023/01/29 05:15:01;;;;;;;36.88;17.33;;;;;;;;;;6123654;28;20183;-77
2023/01/29 05:18:07;;;;;;;;;;;;;;;;;;6126763;28;20106;-74
2023/01/29 05:21:10;;;;;;;30.40;16.02;;;;;;;;;;6125705;29;19975;-75
2023/01/29 05:24:14;;;;;;;28.75;16.15;;;;;;;;;;6124415;28;20068;-74
2023/01/29 05:30:39;;;;;;;35.08;17.05;;;;;;;;;;6119823;28;20114;-76
2023/01/29 05:33:41;;;;;;;33.47;17.98;;;;;;;;;;6125307;28;20099;-75
2023/01/29 05:36:44;;;;;;;37.38;18.13;;;;;;;;;;6128298;28;20052;-75
2023/01/29 05:39:45;;;;;;;32.47;17.13;;;;;;;;;;6124067;28;20115;-77
2023/01/29 05:42:47;;;;;;;31.73;17.25;;;;;;;;;;6124617;29;20067;-76
2023/01/29 05:45:52;;;;;;;36.85;16.40;;;;;;;;;;6122186;28;20132;-75
2023/01/29 05:48:54;;;;;;;33.58;17.27;;;;;;;;;;6124517;28;20107;-75
2023/01/29 05:51:57;;;;;;;33.22;17.10;;;;;;;;;;6127983;28;20071;-74
2023/01/29 05:54:59;;;;;;;31.92;16.60;;;;;;;;;;6124536;28;20353;-76
2023/01/29 05:58:01;;;;;;;30.85;17.20;;;;;;;;;;6128721;28;20445;-73
2023/01/29 06:01:10;;;;;;;37.58;18.30;;;;;;;;;;6131540;28;20055;-73
2023/01/29 06:04:12;;;;;;;30.83;16.90;;;;;;;;;;6127484;28;20059;-71
2023/01/29 06:07:15;;;;;;;33.28;17.50;;;;;;;;;;6129094;28;20047;-73
2023/01/29 06:10:18;;;;;;;36.17;17.15;;;;;;;;;;6129499;28;20085;-68
2023/01/29 06:13:20;;;;;;;31.67;16.77;;;;;;;;;;6128823;28;20050;-72
2023/01/29 06:16:21;;;;;;;27.58;15.73;;;;;;;;;;6128501;28;20106;-71
2023/01/29 06:19:23;;;;;;;31.00;16.67;;;;;;;;;;6125249;28;20052;-72
2023/01/29 06:22:26;;;;;;;33.38;17.17;;;;;;;;;;6127073;28;20055;-72
2023/01/29 06:25:28;;;;;;;28.67;16.35;;;;;;;;;;6128034;28;20075;-73
2023/01/29 06:28:29;;;;;;;30.33;15.18;;;;;;;;;;6128372;28;20051;-73
2023/01/29 06:31:31;;;;;;;31.35;16.42;;;;;;;;;;6128454;29;20043;-68
2023/01/29 06:34:33;;;;;;;30.05;16.30;;;;;;;;;;6131198;28;20059;-69
2023/01/29 06:37:36;;;;;;;30.27;16.63;;;;;;;;;;6129363;28;20062;-72
2023/01/29 06:40:38;;;;;;;30.92;16.13;;;;;;;;;;6127564;28;20347;-71
2023/01/29 06:43:40;;;;;;;29.38;16.42;;;;;;;;;;6129276;28;20063;-74
2023/01/29 06:46:42;;;;;;;31.20;15.48;;;;;;;;;;6127805;28;20060;-71
2023/01/29 06:49:44;;;;;;;31.52;14.65;;;;;;;;;;6129855;28;20154;-71
2023/01/29 06:52:47;;;;;;;29.92;16.13;;;;;;;;;;6125685;28;20076;-73
2023/01/29 06:55:51;;;;;;;36.53;17.48;;;;;;;;;;6125858;28;20099;-71
2023/01/29 06:58:53;;;;;;;29.85;16.27;;;;;;;;;;6124107;28;20283;-74
2023/01/29 07:01:55;;;;;;;26.77;15.48;;;;;;;;;;6122351;28;20323;-74
2023/01/29 07:04:56;;;;;;;31.00;15.07;;;;;;;;;;6126756;28;20055;-73
2023/01/29 07:07:59;;;;;;;29.20;16.55;;;;;;;;;;6126304;28;20055;-71
2023/01/29 07:11:02;;;;;;;29.98;16.63;;;;;;;;;;6126942;28;20119;-73
2023/01/29 07:14:04;;;;;;;32.20;16.67;;;;;;;;;;6129358;28;20110;-75
2023/01/29 07:17:06;;;;;;;30.70;16.38;;;;;;;;;;6126743;28;20055;-73
2023/01/29 07:20:10;;;;;;;29.55;15.65;;;;;;;;;;6124379;28;20063;-69
2023/01/29 07:23:13;;;;;;;30.70;16.63;;;;;;;;;;6126909;28;20054;-73
2023/01/29 07:26:15;;;;;;;29.60;15.40;;;;;;;;;;6128923;28;20106;-73
2023/01/29 07:29:17;;;;;;;31.90;16.70;;;;;;;;;;6125926;28;20064;-72
2023/01/29 07:32:18;;;;;;;33.20;16.85;;;;;;;;;;6126755;28;20066;-71
2023/01/29 07:35:20;;;;;;;32.03;16.05;;;;;;;;;;6125996;28;20338;-72
2023/01/29 07:38:23;;;;;;;30.98;16.88;;;;;;;;;;6131838;28;20056;-73
2023/01/29 07:41:25;;;;;;;33.17;17.67;;;;;;;;;;6123381;28;20040;-70
2023/01/29 07:44:27;;;;;;;31.08;16.80;;;;;;;;;;6122781;28;20074;-72
2023/01/29 07:47:29;;;;;;;34.83;17.65;;;;;;;;;;6123936;28;20070;-71
2023/01/29 07:50:31;;;;;;;29.75;17.00;;;;;;;;;;6124708;28;20062;-71
2023/01/29 07:53:35;;;;;;;28.52;16.63;;;;;;;;;;6128387;28;20052;-72
2023/01/29 07:56:37;;;;;;;31.73;17.70;;;;;;;;;;6127010;28;20062;-73
2023/01/29 07:59:39;;;;;;;31.73;17.35;;;;;;;;;;6129291;28;20055;-72
2023/01/29 08:02:41;;;;;;;29.48;16.63;;;;;;;;;;6127376;29;20055;-74
2023/01/29 08:05:48;;;;;;;29.83;17.52;;;;;;;;;;6125433;29;20064;-71
2023/01/29 08:08:52;;;;;;;31.40;17.17;;;;;;;;;;6125907;28;20331;-73
2023/01/29 08:11:54;;;;;;;34.25;17.70;;;;;;;;;;6127250;28;20102;-72
2023/01/29 08:14:55;;;;;;;32.55;17.00;;;;;;;;;;6121878;28;20055;-73
2023/01/29 08:17:57;;;;;;;36.00;17.88;;;;;;;;;;6119511;29;20110;-73
2023/01/29 08:21:00;;;;;;;32.95;17.40;;;;;;;;;;6126261;28;20091;-73
2023/01/29 08:24:03;;;;;;;30.67;17.52;;;;;;;;;;6127252;28;20054;-73
2023/01/29 08:27:05;;;;;;;30.93;17.73;;;;;;;;;;6124943;28;20090;-73
2023/01/29 08:30:09;;;;;;;28.88;17.65;;;;;;;;;;6123181;28;20480;-68
2023/01/29 08:33:10;;;;;;;30.42;18.00;;;;;;;;;;6121290;28;20052;-72
2023/01/29 08:36:12;;;;;;;33.95;17.40;;;;;;;;;;6127875;28;20103;-73
2023/01/29 08:39:15;;;;;;;32.17;18.00;;;;;;;;;;6126232;28;20367;-71
2023/01/29 08:42:17;;;;;;;36.08;18.25;;;;;;;;;;6125747;28;20074;-76
2023/01/29 08:45:18;;;;;;;32.83;18.73;;;;;;;;;;6127049;28;20098;-73
2023/01/29 08:48:20;;;;;;;30.63;17.70;;;;;;;;;;6120046;28;20059;-73
2023/01/29 08:51:26;;;;;;;30.83;18.55;;;;;;;;;;6130651;28;20101;-72
2023/01/29 08:54:30;;;;;;;32.35;19.58;;;;;;;;;;6124600;28;20060;-74
2023/01/29 08:57:31;;;;;;;31.30;18.27;;;;;;;;;;6125945;28;20336;-73
2023/01/29 09:00:34;;;;;;;32.80;18.85;;;;;;;;;;6123530;28;20065;-70
2023/01/29 09:03:39;;;;;;;33.63;19.42;;;;;;;;;;6127162;29;20055;-73
2023/01/29 09:06:41;;;;;;;31.55;18.50;;;;;;;;;;6128588;28;20296;-74
2023/01/29 09:09:44;;;;;;;31.85;19.35;;;;;;;;;;6125584;28;20116;-75
2023/01/29 09:12:46;;;;;;;31.27;18.57;;;;;;;;;;6123540;28;20051;-71
2023/01/29 09:15:48;;;;;;;33.45;18.92;;;;;;;;;;6127903;29;20059;-73
2023/01/29 09:19:00;;;;;;;32.75;20.10;;;;;;;;;;6123098;28;20339;-70
2023/01/29 09:22:21;;;;;;;32.45;19.42;;;;;;;;;;6124183;28;20345;-75
2023/01/29 09:25:24;;;;;;;34.78;19.23;;;;;;;;;;6111657;28;20063;-72
2023/01/29 09:28:26;;;;;;;34.88;21.05;;;;;;;;;;6124562;29;20262;-72
2023/01/29 09:31:28;;;;;;;34.90;21.20;;;;;;;;;;6129858;28;20070;-75
2023/01/29 09:34:30;;;;;;;34.33;20.92;;;;;;;;;;6128465;28;20055;-73
2023/01/29 09:37:31;;;;;;;35.72;21.15;;;;;;;;;;6129176;28;20055;-73
2023/01/29 09:40:40;;;;;;;40.08;20.17;;;;;;;;;;6128908;28;20055;-73
2023/01/29 09:43:47;;;;;;;37.17;20.77;;;;;;;;;;6129804;29;20052;-71
2023/01/29 09:46:50;;;;;;;30.10;18.88;;;;;;;;;;6129895;28;20084;-77
2023/01/29 09:49:54;;;;;;;35.50;20.08;;;;;;;;;;6129540;29;20213;-73
2023/01/29 09:52:59;;;;;;;30.35;19.88;;;;;;;;;;6121445;28;20048;-75
2023/01/29 09:56:05;;;;;;;32.72;19.27;;;;;;;;;;6123842;29;20055;-76
2023/01/29 09:59:11;;;;;;;30.42;19.23;;;;;;;;;;6128379;28;20058;-74
2023/01/29 10:02:22;;;;;;;29.80;18.25;;;;;;;;;;6126837;28;20098;-75
2023/01/29 10:05:34;;;;;;;28.98;18.38;;;;;;;;;;6129930;28;20059;-73
2023/01/29 10:09:02;;;;;;;25.90;16.85;;;;;;;;;;6128426;28;20052;-76
2023/01/29 10:12:15;;;;;;;25.02;15.00;;;;;;;;;;6127952;28;20064;-74
2023/01/29 10:15:26;;;;;;;29.25;16.95;;;;;;;;;;6130866;28;20346;-74
2023/01/29 10:18:44;;;;;;;25.85;16.27;;;;;;;;;;6131283;28;20132;-74
2023/01/29 10:21:59;;;;;;;27.52;15.77;;;;;;;;;;6132878;28;20143;-75
2023/01/29 10:25:04;;;;;;;26.52;15.82;;;;;;;;;;6128044;28;20059;-74
2023/01/29 10:28:16;;;;;;;25.30;16.42;;;;;;;;;;6129001;28;20117;-73
2023/01/29 10:31:20;;;;;;;25.00;16.10;;;;;;;;;;6129183;28;20054;-77
2023/01/29 10:34:23;;;;;;;;;;;;;;;;;;6125879;28;20048;-74
2023/01/29 10:37:35;;;;;;;26.83;16.02;;;;;;;;;;6127036;28;19918;-75
2023/01/29 10:40:39;;;;;;;27.00;16.38;;;;;;;;;;6127678;28;20059;-75
2023/01/29 10:43:54;;;;;;;26.42;16.55;;;;;;;;;;6127460;29;20102;-73
2023/01/29 10:47:11;;;;;;;24.95;16.67;;;;;;;;;;6128059;28;20060;-74
2023/01/29 10:50:19;;;;;;;29.90;17.17;;;;;;;;;;6127961;29;20052;-73
2023/01/29 10:53:45;;;;;;;25.95;16.85;;;;;;;;;;6128789;28;20355;-74
2023/01/29 10:56:55;;;;;;;27.10;17.20;;;;;;;;;;6129819;28;20078;-74
2023/01/29 11:00:11;;;;;;;27.60;18.15;;;;;;;;;;6127431;28;20102;-74
2023/01/29 11:03:15;;;;;;;27.58;17.83;;;;;;;;;;6124771;28;20082;-74
2023/01/29 11:06:20;;;;;;;29.15;17.42;;;;;;;;;;6130195;28;20062;-75
2023/01/29 11:09:28;;;;;;;26.77;16.63;;;;;;;;;;6127979;28;20089;-74
2023/01/29 11:12:32;;;;;;;31.27;19.05;;;;;;;;;;6128547;28;20060;-75
2023/01/29 11:15:35;;;;;;;27.50;17.30;;;;;;;;;;6125419;28;20051;-73
2023/01/29 11:18:51;;;;;;;27.25;17.77;;;;;;;;;;6128232;29;20068;-71
2023/01/29 11:21:57;;;;;;;30.58;18.02;;;;;;;;;;6129931;28;20059;-72
2023/01/29 11:25:10;;;;;;;26.95;17.08;;;;;;;;;;6125522;29;20056;-67
2023/01/29 11:28:11;;;;;;;28.40;17.65;;;;;;;;;;6125601;29;20058;-74
2023/01/29 11:31:22;;;;;;;30.42;17.80;;;;;;;;;;6126845;28;20110;-75
2023/01/29 11:34:26;;;;;;;26.65;16.00;;;;;;;;;;6126306;28;20055;-76
2023/01/29 11:37:35;;;;;;;24.70;16.50;;;;;;;;;;6127946;28;20115;-76
2023/01/29 11:40:39;;;;;;;28.67;17.60;;;;;;;;;;6127627;28;20064;-75
2023/01/29 11:43:41;;;;;;;26.58;17.30;;;;;;;;;;6127620;28;20059;-72
2023/01/29 11:46:44;;;;;;;27.35;17.77;;;;;;;;;;6128048;28;20067;-75
2023/01/29 11:49:48;;;;;;;27.00;17.60;;;;;;;;;;6127625;28;20062;-75
2023/01/29 11:52:50;;;;;;;28.42;15.75;;;;;;;;;;6126922;28;20143;-78
2023/01/29 11:55:51;;;;;;;21.20;14.70;;;;;;;;;;6129277;28;20056;-75
2023/01/29 11:58:55;;;;;;;24.35;15.38;;;;;;;;;;6128087;28;20339;-78
2023/01/29 12:02:05;;;;;;;24.50;13.97;;;;;;;;;;6125294;28;20147;-77
2023/01/29 12:05:15;;;;;;;23.58;14.60;;;;;;;;;;6127880;28;20066;-74
2023/01/29 12:08:18;;;;;;;21.48;14.45;;;;;;;;;;6127051;28;20153;-71
2023/01/29 12:11:24;;;;;;;22.67;15.15;;;;;;;;;;6127128;28;20368;-79
2023/01/29 12:14:32;;;;;;;21.45;13.93;;;;;;;;;;6124128;28;20110;-74
2023/01/29 12:17:38;;;;;;;21.92;13.93;;;;;;;;;;6128034;28;20059;-75
2023/01/29 12:20:45;;;;;;;23.27;13.98;;;;;;;;;;6128141;28;20083;-76
2023/01/29 12:23:52;;;;;;;22.42;14.45;;;;;;;;;;6125606;28;20055;-76
2023/01/29 12:27:00;;;;;;;28.45;13.73;;;;;;;;;;6124515;28;20205;-74
2023/01/29 12:30:05;;;;;;;21.33;13.63;;;;;;;;;;6126657;28;20052;-70
2023/01/29 12:33:15;;;;;;;21.40;13.15;;;;;;;;;;6127303;28;20071;-73
2023/01/29 12:36:21;;;;;;;18.63;12.68;;;;;;;;;;6125583;29;20237;-75
2023/01/29 12:39:23;;;;;;;18.98;12.15;;;;;;;;;;6124611;28;20098;-76
2023/01/29 12:42:26;;;;;;;23.52;14.18;;;;;;;;;;6122854;28;20051;-74
2023/01/29 12:45:29;;;;;;;25.95;13.02;;;;;;;;;;6122849;28;20063;-73
2023/01/29 12:48:34;;;;;;;21.10;12.93;;;;;;;;;;6124624;28;20123;-76
2023/01/29 12:51:39;;;;;;;20.10;12.93;;;;;;;;;;6125668;28;20100;-70
2023/01/29 12:54:47;;;;;;;23.55;14.55;;;;;;;;;;6123245;28;20343;-75
2023/01/29 12:57:54;;;;;;;21.20;13.95;;;;;;;;;;6123568;29;20065;-76
2023/01/29 13:00:58;;;;;;;19.95;12.60;;;;;;;;;;6124461;28;20039;-76
2023/01/29 13:04:03;;;;;;;20.93;13.13;;;;;;;;;;6122758;29;20044;-78
2023/01/29 13:07:12;;;;;;;19.80;13.18;;;;;;;;;;6122708;28;20059;-73
2023/01/29 13:10:16;;;;;;;21.10;13.00;;;;;;;;;;6123172;28;20059;-74
2023/01/29 13:13:24;;;;;;;18.40;11.88;;;;;;;;;;6121555;29;20070;-74
2023/01/29 13:16:27;;;;;;;19.35;11.70;;;;;;;;;;6122953;28;20055;-74
2023/01/29 13:19:34;;;;;;;18.55;11.88;;;;;;;;;;6123670;28;20426;-75
2023/01/29 13:22:38;;;;;;;22.38;13.02;;;;;;;;;;6124178;28;20340;-74
2023/01/29 13:25:40;;;;;;;18.33;12.23;;;;;;;;;;6122034;28;20288;-74
2023/01/29 13:28:44;;;;;;;17.02;11.57;;;;;;;;;;6122567;28;20225;-71
2023/01/29 13:31:47;;;;;;;21.08;12.13;;;;;;;;;;6122709;28;20052;-71
2023/01/29 13:34:51;;;;;;;20.63;12.57;;;;;;;;;;6123778;28;20082;-73
2023/01/29 13:37:54;;;;;;;18.83;11.77;;;;;;;;;;6123291;28;20055;-72
2023/01/29 13:41:00;;;;;;;17.05;11.10;;;;;;;;;;6126271;28;20275;-74
2023/01/29 13:44:07;;;;;;;17.95;11.55;;;;;;;;;;6125755;28;20070;-72
2023/01/29 13:47:10;;;;;;;18.77;11.23;;;;;;;;;;6121517;28;20150;-73
2023/01/29 13:50:19;;;;;;;17.75;11.32;;;;;;;;;;6127153;29;20056;-74
2023/01/29 13:53:26;;;;;;;18.80;11.43;;;;;;;;;;6124738;28;20378;-72
2023/01/29 13:56:43;;;;;;;17.77;11.45;;;;;;;;;;6123710;28;20048;-72
2023/01/29 13:59:54;;;;;;;17.92;11.38;;;;;;;;;;6125779;28;20119;-73
2023/01/29 14:03:28;;;;;;;16.13;10.77;;;;;;;;;;6126465;29;20056;-73
2023/01/29 14:06:47;;;;;;;17.15;11.63;;;;;;;;;;6123380;28;20339;-73
2023/01/29 14:10:14;;;;;;;19.33;12.05;;;;;;;;;;6124520;28;20115;-74
2023/01/29 14:13:27;;;;;;;19.33;12.20;;;;;;;;;;6125370;28;20048;-72
2023/01/29 14:16:35;;;;;;;17.40;10.98;;;;;;;;;;6126140;28;20082;-73
2023/01/29 14:19:36;;;;;;;18.00;12.18;;;;;;;;;;6128244;28;20115;-73
2023/01/29 14:22:40;;;;;;;18.25;12.18;;;;;;;;;;6127006;28;20059;-73
2023/01/29 14:25:43;;;;;;;17.80;11.80;;;;;;;;;;6131651;28;20265;-73
2023/01/29 14:28:52;;;;;;;18.85;13.00;;;;;;;;;;6128587;28;20047;-73
2023/01/29 14:31:57;;;;;;;20.27;13.20;;;;;;;;;;6128844;28;20075;-68
2023/01/29 14:35:01;;;;;;;19.25;12.18;;;;;;;;;;6130362;28;20051;-72
2023/01/29 14:38:05;;;;;;;19.00;12.23;;;;;;;;;;6129482;29;20055;-73
2023/01/29 14:41:18;;;;;;;18.02;12.90;;;;;;;;;;6128894;28;20063;-74
2023/01/29 14:44:57;;;;;;;19.58;13.00;;;;;;;;;;6128315;29;20059;-73
2023/01/29 14:48:38;;;;;;;19.45;12.85;;;;;;;;;;6128516;28;20216;-74
2023/01/29 14:51:44;;;;;;;20.27;13.10;;;;;;;;;;6126661;28;20042;-74
2023/01/29 14:54:48;;;;;;;20.67;13.52;;;;;;;;;;6124615;28;20055;-74
2023/01/29 14:57:50;;;;;;;;;;;;;;;;;;6126554;28;20271;-68
2023/01/29 15:00:54;;;;;;;19.92;13.15;;;;;;;;;;6130061;28;19930;-73
2023/01/29 15:04:00;;;;;;;20.30;13.40;;;;;;;;;;6126678;28;20067;-69
2023/01/29 15:07:04;;;;;;;19.45;12.57;;;;;;;;;;6125781;28;20044;-73
2023/01/29 15:10:11;;;;;;;;;;;;;;;;;;6131464;28;20059;-72
2023/01/29 15:13:17;;;;;;;18.10;12.35;;;;;;;;;;6126465;28;19967;-72
2023/01/29 15:16:22;;;;;;;21.30;12.80;;;;;;;;;;6126625;28;20053;-72
2023/01/29 15:19:27;;;;;;;19.25;11.95;;;;;;;;;;6125962;28;20205;-73
2023/01/29 15:22:31;;;;;;;20.45;13.00;;;;;;;;;;6125782;28;20055;-73
2023/01/29 15:25:36;;;;;;;;;;;;;;;;;;6129369;28;20052;-73
2023/01/29 15:28:38;;;;;;;19.05;12.25;;;;;;;;;;6127577;28;19933;-72
2023/01/29 15:31:41;;;;;;;20.52;12.23;;;;;;;;;;6127107;28;21641;-72
2023/01/29 15:34:43;;;;;;;20.77;13.32;;;;;;;;;;6127152;28;20090;-72
2023/01/29 15:37:58;;;;;;;21.05;12.45;;;;;;;;;;6122386;28;20095;-69
2023/01/29 15:41:03;;;;;;;19.55;12.25;;;;;;;;;;6126454;28;20114;-72
2023/01/29 15:44:15;;;;;;;22.70;12.32;;;;;;;;;;6125871;28;20055;-73
2023/01/29 15:47:16;;;;;;;22.05;13.48;;;;;;;;;;6126024;28;20064;-74
2023/01/29 15:50:18;;;;;;;21.65;12.77;;;;;;;;;;6125438;28;20070;-72
2023/01/29 15:53:25;;;;;;;25.55;12.75;;;;;;;;;;6125623;28;20351;-67
2023/01/29 15:56:30;;;;;;;21.33;12.02;;;;;;;;;;6126505;28;20145;-73
2023/01/29 15:59:34;;;;;;;20.95;12.38;;;;;;;;;;6128918;28;20062;-72
2023/01/29 16:02:38;;;;;;;24.42;12.95;;;;;;;;;;6126076;28;20098;-70
2023/01/29 16:05:40;;;;;;;24.48;13.68;;;;;;;;;;6126983;28;20063;-73
2023/01/29 16:08:42;;;;;;;27.70;14.60;;;;;;;;;;6124440;28;20059;-71
2023/01/29 16:11:46;;;;;;;22.90;13.73;;;;;;;;;;6126639;28;20296;-72
2023/01/29 16:14:49;;;;;;;21.27;12.95;;;;;;;;;;6122811;28;20319;-70
2023/01/29 16:17:51;;;;;;;22.52;12.95;;;;;;;;;;6127575;28;20055;-71
2023/01/29 16:20:54;;;;;;;23.55;13.85;;;;;;;;;;6127534;28;20051;-73
2023/01/29 16:23:59;;;;;;;22.70;14.05;;;;;;;;;;6122708;28;20172;-73
2023/01/29 16:27:08;;;;;;;20.95;13.00;;;;;;;;;;6124469;28;20052;-70
2023/01/29 16:30:13;;;;;;;22.42;13.45;;;;;;;;;;6124463;28;20063;-72
2023/01/29 16:33:16;;;;;;;22.10;12.73;;;;;;;;;;6124628;28;20063;-72
2023/01/29 16:36:19;;;;;;;23.35;13.85;;;;;;;;;;6126305;28;20056;-70
2023/01/29 16:39:22;;;;;;;22.23;13.40;;;;;;;;;;6123718;28;20047;-70
2023/01/29 16:42:30;;;;;;;24.25;14.27;;;;;;;;;;6125546;28;20251;-68
2023/01/29 16:45:31;;;;;;;26.42;13.73;;;;;;;;;;6126239;28;20059;-71
2023/01/29 16:48:34;;;;;;;23.98;13.98;;;;;;;;;;6124039;28;20051;-72
2023/01/29 16:51:38;;;;;;;25.27;14.18;;;;;;;;;;6128945;29;20066;-70
2023/01/29 16:54:42;;;;;;;29.15;14.60;;;;;;;;;;6123811;28;20074;-71
2023/01/29 16:57:48;;;;;;;24.80;14.32;;;;;;;;;;6127006;29;20119;-73
2023/01/29 17:00:52;;;;;;;25.63;13.73;;;;;;;;;;6127254;28;20386;-72
2023/01/29 17:03:59;;;;;;;25.08;14.23;;;;;;;;;;6128567;28;20317;-73
2023/01/29 17:07:02;;;;;;;25.35;14.05;;;;;;;;;;6124323;28;20040;-70
2023/01/29 17:10:06;;;;;;;24.08;14.30;;;;;;;;;;6126777;28;20278;-72
2023/01/29 17:13:16;;;;;;;23.85;13.90;;;;;;;;;;6126010;28;20362;-71
2023/01/29 17:16:22;;;;;;;26.30;14.82;;;;;;;;;;6124362;28;20059;-72
2023/01/29 17:19:24;;;;;;;25.88;14.05;;;;;;;;;;6123618;28;20114;-73
2023/01/29 17:22:26;;;;;;;27.45;14.63;;;;;;;;;;6125971;28;20058;-73
2023/01/29 17:25:28;;;;;;;26.90;15.48;;;;;;;;;;6126804;28;20044;-70
2023/01/29 17:28:31;;;;;;;27.35;15.40;;;;;;;;;;6122471;28;20098;-76
2023/01/29 17:31:33;;;;;;;24.05;15.30;;;;;;;;;;6125505;28;20343;-69
2023/01/29 17:34:35;;;;;;;25.38;14.55;;;;;;;;;;6127061;28;20059;-71
2023/01/29 17:37:36;;;;;;;23.65;15.02;;;;;;;;;;6123767;28;20063;-69
2023/01/29 17:40:41;;;;;;;26.58;15.05;;;;;;;;;;6124311;28;20050;-71
2023/01/29 17:43:44;;;;;;;28.75;14.32;;;;;;;;;;6126257;29;20327;-70
2023/01/29 17:46:46;;;;;;;26.40;14.68;;;;;;;;;;6124039;28;20051;-71
2023/01/29 17:49:49;;;;;;;23.52;14.60;;;;;;;;;;6126193;28;20057;-71
2023/01/29 17:52:52;;;;;;;25.92;14.32;;;;;;;;;;6130104;28;20056;-70
2023/01/29 17:55:54;;;;;;;24.20;13.90;;;;;;;;;;6129025;29;20070;-71
2023/01/29 17:58:57;;;;;;;27.13;14.88;;;;;;;;;;6129325;28;20059;-67
2023/01/29 18:01:59;;;;;;;26.50;14.07;;;;;;;;;;6128363;28;20055;-68
2023/01/29 18:05:01;;;;;;;27.42;14.52;;;;;;;;;;6128248;28;20055;-69
2023/01/29 18:08:03;;;;;;;27.75;14.52;;;;;;;;;;6128547;28;20087;-71
2023/01/29 18:11:05;;;;;;;30.50;15.48;;;;;;;;;;6127013;28;20044;-71
2023/01/29 18:14:08;;;;;;;24.67;14.43;;;;;;;;;;6127250;28;20402;-72
2023/01/29 18:17:10;;;;;;;23.35;14.00;;;;;;;;;;6128071;28;20127;-71
2023/01/29 18:20:18;;;;;;;27.10;14.23;;;;;;;;;;6131784;28;20147;-70
2023/01/29 18:23:20;;;;;;;26.65;14.75;;;;;;;;;;6126837;28;20299;-71